Karl Stefan Memorial Airport Norfolk US
ICAO: KOFK
IATA: OFK
Category: Medium
Scheduled Services: No

Elevation: 1573 ft
TransAlt. 18000 ft.

Airport Communications:
ASOS:119.025
COLUMBUS RDO:122.15
CTAF/UNICOM:122.7

KOFK Zoom In..

If Map Doesn't Load, Click Here

Runways:

(A) RW 01 length 5800 ft width 100 ft
ILS 111.50 / hdg 14

(B) RW 14 length 5800 ft width 100 ft
---- / hdg 137

(C) RW 19 length 5800 ft width 100 ft
---- / hdg 194

(D) RW 32 length 5800 ft width 100 ft
---- / hdg 317

Location; KOFK
Day. 23 / Time. 07.56 Zulu
* Altimeter: 30.02
* Temperature: 13° c. 55.4°f.
* Wind from: 170° Speed 08 kn.
Dewpoint: 09° c.
Visibility: 10 Statute Miles.
Clouds: Clear (automated report).

KOFK 230756Z AUTO 17008KT 10SM CLR 13/09 A3002 RMK AO2 SLP159 T01280089


Wind From 170°
Speed 08 kn.

 
 
jpsmedia.com for Web Design worldairports.se 2018   terms of use